createdAt,value
2022-09-17T00:00:32.358Z,99046.06
2022-09-17T00:01:23.693Z,99046.47
2022-09-17T00:02:10.676Z,99048.16
2022-09-17T00:02:57.542Z,99042.28
2022-09-17T00:03:45.646Z,99041.25
2022-09-17T00:04:32.396Z,99046.47
2022-09-17T00:05:19.198Z,99039.63
2022-09-17T00:06:08.447Z,99048.56
2022-09-17T00:06:55.318Z,99048.34
2022-09-17T00:07:42.007Z,99054.38
2022-09-17T00:08:28.930Z,99047.31
2022-09-17T00:09:15.827Z,99044.97
2022-09-17T00:10:02.555Z,99045.25
2022-09-17T00:10:49.507Z,99046.31
2022-09-17T00:11:40.234Z,99051.94
2022-09-17T00:12:27.076Z,99046.72
2022-09-17T00:13:13.766Z,99045.09
2022-09-17T00:14:02.247Z,99049.19
2022-09-17T00:14:48.936Z,99052.34
2022-09-17T00:15:46.146Z,99045.31
2022-09-17T00:16:40.549Z,99046.53
2022-09-17T00:17:27.227Z,99054.66
2022-09-17T00:18:14.976Z,99048.41
2022-09-17T00:19:02.914Z,99040.69
2022-09-17T00:19:50.061Z,99043.16
2022-09-17T00:20:43.858Z,99038.84
2022-09-17T00:21:30.980Z,99033.44
2022-09-17T00:22:17.771Z,99036.16
2022-09-17T00:23:04.516Z,99039.84
2022-09-17T00:23:59.278Z,99035.63
2022-09-17T00:24:46.036Z,99036.50
2022-09-17T00:25:33.046Z,99044.06
2022-09-17T00:26:19.867Z,99041.94
2022-09-17T00:27:06.697Z,99037.97
2022-09-17T00:27:53.376Z,99042.84
2022-09-17T00:28:40.157Z,99044.06
2022-09-17T00:29:26.847Z,99039.88
2022-09-17T00:30:14.166Z,99044.47
2022-09-17T00:31:00.915Z,99057.59
2022-09-17T00:31:47.868Z,99058.44
2022-09-17T00:32:34.727Z,99060.31
2022-09-17T00:33:21.477Z,99057.00
2022-09-17T00:34:08.606Z,99059.94
2022-09-17T00:34:55.320Z,99054.88
2022-09-17T00:35:42.556Z,99053.03
2022-09-17T00:36:29.694Z,99056.56
2022-09-17T00:37:16.636Z,99052.41
2022-09-17T00:38:03.557Z,99052.41
2022-09-17T00:38:51.668Z,99043.88
2022-09-17T00:39:38.557Z,99045.78
2022-09-17T00:40:25.378Z,99044.34
2022-09-17T00:41:12.146Z,99045.38
2022-09-17T00:41:58.897Z,99047.87
2022-09-17T00:42:45.658Z,99050.75
2022-09-17T00:43:43.146Z,99048.66
2022-09-17T00:44:51.127Z,99048.50
2022-09-17T00:45:39.803Z,99044.34
2022-09-17T00:46:44.850Z,99044.09
2022-09-17T00:47:39.267Z,99048.91
2022-09-17T00:48:26.167Z,99041.63
2022-09-17T00:49:22.768Z,99052.06
2022-09-17T00:50:13.597Z,99046.19
2022-09-17T00:51:01.727Z,99042.06
2022-09-17T00:52:00.151Z,99042.81
2022-09-17T00:52:53.886Z,99038.25
2022-09-17T00:53:40.687Z,99034.72
2022-09-17T00:54:27.817Z,99041.34
2022-09-17T00:55:27.301Z,99045.78
2022-09-17T00:56:35.267Z,99035.97
2022-09-17T00:57:22.306Z,99043.72
2022-09-17T00:58:12.457Z,99048.09
2022-09-17T00:59:01.388Z,99048.09
2022-09-17T00:59:48.687Z,99044.34
2022-09-17T01:00:35.922Z,99054.94
2022-09-17T01:01:22.786Z,99054.56
2022-09-17T01:02:09.698Z,99049.97
2022-09-17T01:02:56.987Z,99049.16
2022-09-17T01:03:43.757Z,99048.28
2022-09-17T01:04:30.617Z,99045.38
2022-09-17T01:05:17.717Z,99048.28
2022-09-17T01:06:23.048Z,99048.28
2022-09-17T01:07:16.237Z,99054.16
2022-09-17T01:08:08.337Z,99054.81
2022-09-17T01:09:17.107Z,99053.09
2022-09-17T01:10:20.357Z,99046.81
2022-09-17T01:11:28.368Z,99047.53
2022-09-17T01:12:44.866Z,99046.69
2022-09-17T01:13:48.968Z,99041.50
2022-09-17T01:14:44.859Z,99032.53
2022-09-17T01:15:52.155Z,99037.09
2022-09-17T01:16:48.991Z,99037.28
2022-09-17T01:17:58.837Z,99034.13
2022-09-17T01:18:51.027Z,99044.97
2022-09-17T01:20:15.255Z,99037.03
2022-09-17T01:21:34.418Z,99038.53
2022-09-17T01:22:49.127Z,99043.94
2022-09-17T01:24:13.308Z,99047.94
2022-09-17T01:25:19.017Z,99049.16
2022-09-17T01:26:24.596Z,99049.75
2022-09-17T01:27:33.878Z,99055.66
2022-09-17T01:28:54.526Z,99062.38
2022-09-17T01:29:59.947Z,99067.75
2022-09-17T01:31:01.690Z,99067.50
2022-09-17T01:31:52.119Z,99061.84
2022-09-17T01:32:46.146Z,99065.78
2022-09-17T01:33:51.029Z,99068.97
2022-09-17T01:34:46.307Z,99063.81
2022-09-17T01:36:01.237Z,99067.12
2022-09-17T01:37:03.646Z,99074.59
2022-09-17T01:37:57.047Z,99067.56
2022-09-17T01:38:51.787Z,99065.09
2022-09-17T01:39:56.277Z,99062.53
2022-09-17T01:40:51.328Z,99054.16
2022-09-17T01:41:45.847Z,99057.53
2022-09-17T01:42:52.713Z,99056.72
2022-09-17T01:43:51.936Z,99060.44
2022-09-17T01:44:46.087Z,99051.47
2022-09-17T01:45:42.576Z,99048.13
2022-09-17T01:46:36.276Z,99053.56
2022-09-17T01:47:27.566Z,99055.81
2022-09-17T01:48:19.367Z,99050.78
2022-09-17T01:49:06.748Z,99052.69
2022-09-17T01:49:57.608Z,99050.19
2022-09-17T01:50:56.734Z,99045.81
2022-09-17T01:51:47.567Z,99044.41
2022-09-17T01:52:36.416Z,99040.22
2022-09-17T01:53:28.526Z,99040.41
2022-09-17T01:54:18.016Z,99044.19
2022-09-17T01:55:15.166Z,99044.00
2022-09-17T01:56:02.956Z,99039.22
2022-09-17T01:56:55.516Z,99036.28
2022-09-17T01:57:56.987Z,99034.63
2022-09-17T01:58:51.918Z,99032.91
2022-09-17T01:59:51.730Z,99036.91
2022-09-17T02:00:39.768Z,99041.94
2022-09-17T02:01:28.857Z,99036.31
2022-09-17T02:02:20.747Z,99035.66
2022-09-17T02:03:11.579Z,99033.63
2022-09-17T02:04:10.010Z,99035.09
2022-09-17T02:05:09.177Z,99036.81
2022-09-17T02:06:00.910Z,99026.00
2022-09-17T02:06:52.659Z,99028.28
2022-09-17T02:07:42.856Z,99034.72
2022-09-17T02:08:40.287Z,99021.19
2022-09-17T02:09:41.226Z,99028.47
2022-09-17T02:10:31.696Z,99025.34
2022-09-17T02:11:19.946Z,99032.22
2022-09-17T02:12:11.180Z,99020.34
2022-09-17T02:13:02.766Z,99023.22
2022-09-17T02:13:55.070Z,99021.19
2022-09-17T02:14:47.766Z,99019.97
2022-09-17T02:15:42.055Z,99022.06
2022-09-17T02:16:34.193Z,99019.31
2022-09-17T02:17:45.377Z,99016.63
2022-09-17T02:18:55.437Z,99010.59
2022-09-17T02:19:42.567Z,99015.22
2022-09-17T02:20:46.738Z,99014.78
2022-09-17T02:22:01.210Z,99013.34
2022-09-17T02:22:52.627Z,99011.03
2022-09-17T02:23:47.102Z,99014.12
2022-09-17T02:24:55.627Z,99009.75
2022-09-17T02:26:01.177Z,99006.22
2022-09-17T02:27:01.039Z,99007.72
2022-09-17T02:28:24.406Z,99009.84
2022-09-17T02:29:20.036Z,99013.97
2022-09-17T02:30:07.237Z,99013.38
2022-09-17T02:30:54.737Z,99008.59
2022-09-17T02:31:42.703Z,99001.97
2022-09-17T02:32:29.487Z,99005.50
2022-09-17T02:33:16.376Z,99006.31
2022-09-17T02:34:04.018Z,99005.03
2022-09-17T02:34:50.906Z,99007.34
2022-09-17T02:35:39.296Z,99003.34
2022-09-17T02:36:26.067Z,99005.25
2022-09-17T02:37:13.025Z,99013.56
2022-09-17T02:38:00.887Z,99016.69
2022-09-17T02:38:47.588Z,99020.47
2022-09-17T02:39:34.247Z,99017.31
2022-09-17T02:40:22.388Z,99007.09
2022-09-17T02:41:25.377Z,99018.56
2022-09-17T02:42:43.227Z,99014.44
2022-09-17T02:43:39.208Z,99015.44
2022-09-17T02:44:34.956Z,99013.56
2022-09-17T02:45:46.350Z,99008.34
2022-09-17T02:47:11.796Z,99009.00
2022-09-17T02:48:21.096Z,99004.00
2022-09-17T02:49:10.616Z,98995.66
2022-09-17T02:50:19.126Z,98998.81
2022-09-17T02:51:19.495Z,98994.22
2022-09-17T02:52:13.657Z,98988.78
2022-09-17T02:53:28.846Z,98982.97
2022-09-17T02:54:34.305Z,98977.59
2022-09-17T02:55:21.216Z,98980.50
2022-09-17T02:56:14.676Z,98975.09
2022-09-17T02:57:16.806Z,98978.63
2022-09-17T02:58:22.669Z,98973.81
2022-09-17T02:59:20.041Z,98967.34
2022-09-17T03:00:16.908Z,98965.31
2022-09-17T03:01:19.314Z,98960.94
2022-09-17T03:02:12.876Z,98960.94
2022-09-17T03:03:04.427Z,98953.59
2022-09-17T03:03:52.326Z,98950.69
2022-09-17T03:04:40.907Z,98956.47
2022-09-17T03:05:28.930Z,98942.53
2022-09-17T03:06:16.197Z,98950.84
2022-09-17T03:07:10.076Z,98950.25
2022-09-17T03:07:57.576Z,98944.41
2022-09-17T03:08:44.528Z,98952.53
2022-09-17T03:09:31.205Z,98948.53
2022-09-17T03:10:18.977Z,98937.72
2022-09-17T03:11:06.337Z,98941.09
2022-09-17T03:11:53.016Z,98944.44
2022-09-17T03:12:40.916Z,98938.19
2022-09-17T03:13:27.739Z,98942.00
2022-09-17T03:14:14.496Z,98943.66
2022-09-17T03:15:01.236Z,98947.38
2022-09-17T03:15:48.117Z,98939.88
2022-09-17T03:16:34.909Z,98939.88
2022-09-17T03:17:21.687Z,98938.19
2022-09-17T03:18:08.356Z,98937.81
2022-09-17T03:18:55.216Z,98942.63
2022-09-17T03:19:41.976Z,98939.50
2022-09-17T03:20:28.656Z,98944.31
2022-09-17T03:21:15.468Z,98955.75
2022-09-17T03:22:02.239Z,98954.72
2022-09-17T03:22:48.966Z,98967.41
2022-09-17T03:23:35.636Z,98973.47
2022-09-17T03:24:22.366Z,98970.34
2022-09-17T03:25:09.776Z,98979.44
2022-09-17T03:25:56.457Z,98977.81
2022-09-17T03:26:43.317Z,98980.75
2022-09-17T03:27:30.087Z,98980.09
2022-09-17T03:28:17.176Z,98977.59
2022-09-17T03:29:03.946Z,98979.91
2022-09-17T03:29:50.678Z,98978.22
2022-09-17T03:30:37.388Z,98982.84
2022-09-17T03:31:24.158Z,98975.59
2022-09-17T03:32:11.297Z,98985.38
2022-09-17T03:32:58.058Z,98981.22
2022-09-17T03:33:44.787Z,98977.03
2022-09-17T03:34:31.566Z,98979.97
2022-09-17T03:35:18.336Z,98977.50
2022-09-17T03:36:05.139Z,98976.69
2022-09-17T03:36:51.838Z,98979.16
2022-09-17T03:37:38.626Z,98972.31
2022-09-17T03:38:25.536Z,98972.28
2022-09-17T03:39:12.407Z,98966.03
2022-09-17T03:39:59.127Z,98969.34
2022-09-17T03:41:00.234Z,98964.97
2022-09-17T03:41:46.998Z,98966.66
2022-09-17T03:42:33.726Z,98970.78
2022-09-17T03:43:20.437Z,98967.69
2022-09-17T03:44:07.307Z,98965.37
2022-09-17T03:44:54.106Z,98961.03
2022-09-17T03:45:40.786Z,98977.47
2022-09-17T03:46:27.478Z,98971.25
2022-09-17T03:47:17.033Z,98972.28
2022-09-17T03:48:04.088Z,98976.66
2022-09-17T03:48:51.043Z,98979.13
2022-09-17T03:49:37.748Z,98975.19
2022-09-17T03:50:24.826Z,98969.16
2022-09-17T03:51:11.598Z,98957.87
2022-09-17T03:51:58.419Z,98961.19
2022-09-17T03:52:45.157Z,98962.03
2022-09-17T03:53:32.717Z,98959.75
2022-09-17T03:54:19.675Z,98960.19
2022-09-17T03:55:06.966Z,98959.19
2022-09-17T03:55:53.706Z,98956.25
2022-09-17T03:56:40.466Z,98960.84
2022-09-17T03:57:27.307Z,98959.56
2022-09-17T03:58:14.048Z,98966.25
2022-09-17T03:59:01.446Z,98957.91
2022-09-17T03:59:49.530Z,98957.09
2022-09-17T04:00:39.927Z,98956.06
2022-09-17T04:01:27.709Z,98961.28
2022-09-17T04:02:14.860Z,98957.97
2022-09-17T04:03:01.921Z,98960.00
2022-09-17T04:03:48.769Z,98955.88
2022-09-17T04:04:36.539Z,98946.28
2022-09-17T04:05:23.796Z,98950.63
2022-09-17T04:06:10.486Z,98950.66
2022-09-17T04:06:57.242Z,98945.22
2022-09-17T04:07:43.926Z,98952.31
2022-09-17T04:08:30.647Z,98945.81
2022-09-17T04:09:17.458Z,98944.38
2022-09-17T04:10:05.461Z,98944.19
2022-09-17T04:10:52.189Z,98937.50
2022-09-17T04:11:38.957Z,98939.53
2022-09-17T04:12:25.626Z,98935.81
2022-09-17T04:13:13.407Z,98931.47
2022-09-17T04:14:00.086Z,98922.94
2022-09-17T04:14:46.947Z,98919.63
2022-09-17T04:15:33.626Z,98921.91
2022-09-17T04:16:20.438Z,98905.22
2022-09-17T04:17:07.201Z,98907.72
2022-09-17T04:18:00.035Z,98917.13
2022-09-17T04:18:46.747Z,98913.16
2022-09-17T04:19:33.487Z,98909.22
2022-09-17T04:20:20.237Z,98916.50
2022-09-17T04:21:06.916Z,98919.88
2022-09-17T04:21:53.588Z,98914.66
2022-09-17T04:22:40.247Z,98910.06
2022-09-17T04:23:26.917Z,98910.69
2022-09-17T04:24:13.637Z,98913.41
2022-09-17T04:25:00.417Z,98904.88
2022-09-17T04:25:47.236Z,98912.38
2022-09-17T04:26:33.866Z,98910.16
2022-09-17T04:27:20.598Z,98911.59
2022-09-17T04:28:07.315Z,98921.59
2022-09-17T04:28:54.106Z,98916.22
2022-09-17T04:29:41.314Z,98921.63
2022-09-17T04:30:28.066Z,98918.06
2022-09-17T04:31:14.881Z,98920.16
2022-09-17T04:32:01.818Z,98923.47
2022-09-17T04:32:48.626Z,98922.62
2022-09-17T04:33:35.479Z,98916.41
2022-09-17T04:34:22.226Z,98919.31
2022-09-17T04:35:09.627Z,98915.16
2022-09-17T04:35:56.396Z,98916.19
2022-09-17T04:36:43.247Z,98920.13
2022-09-17T04:37:30.116Z,98921.97
2022-09-17T04:38:18.721Z,98927.63
2022-09-17T04:39:05.527Z,98930.31
2022-09-17T04:39:53.134Z,98943.63
2022-09-17T04:40:41.682Z,98943.81
2022-09-17T04:41:28.427Z,98951.31
2022-09-17T04:42:16.229Z,98956.53
2022-09-17T04:43:03.531Z,98953.62
2022-09-17T04:43:50.476Z,98960.03
2022-09-17T04:44:37.177Z,98962.34
2022-09-17T04:45:24.025Z,98963.00
2022-09-17T04:46:10.854Z,98963.81
2022-09-17T04:46:57.676Z,98965.25
2022-09-17T04:47:44.537Z,98968.38
2022-09-17T04:48:31.337Z,98969.63
2022-09-17T04:49:18.096Z,98970.47
2022-09-17T04:50:05.087Z,98975.47
2022-09-17T04:50:52.016Z,98974.19
2022-09-17T04:51:38.726Z,98970.88
2022-09-17T04:52:30.772Z,98970.06
2022-09-17T04:53:19.038Z,98969.22
2022-09-17T04:54:05.997Z,98966.94
2022-09-17T04:54:52.677Z,98961.94
2022-09-17T04:55:39.807Z,98956.72
2022-09-17T04:56:26.667Z,98967.09
2022-09-17T04:57:13.637Z,98959.84
2022-09-17T04:58:00.335Z,98956.94
2022-09-17T04:58:47.187Z,98956.31
2022-09-17T04:59:33.926Z,98958.63
2022-09-17T05:00:22.347Z,98956.94
2022-09-17T05:01:09.170Z,98958.78
2022-09-17T05:01:55.972Z,98948.41
2022-09-17T05:02:47.027Z,98956.06
2022-09-17T05:03:33.707Z,98957.75
2022-09-17T05:04:20.508Z,98957.41
2022-09-17T05:05:07.616Z,98954.69
2022-09-17T05:05:54.377Z,98947.19
2022-09-17T05:06:41.156Z,98948.41
2022-09-17T05:07:27.877Z,98941.75
2022-09-17T05:08:14.658Z,98946.72
2022-09-17T05:09:02.286Z,98953.19
2022-09-17T05:09:49.706Z,98948.19
2022-09-17T05:10:36.419Z,98948.19
2022-09-17T05:11:23.225Z,98947.56
2022-09-17T05:12:09.958Z,98945.47
2022-09-17T05:12:57.201Z,98943.81
2022-09-17T05:13:44.147Z,98938.56
2022-09-17T05:14:30.806Z,98942.34
2022-09-17T05:15:17.888Z,98939.44
2022-09-17T05:16:05.145Z,98936.53
2022-09-17T05:16:51.857Z,98937.97
2022-09-17T05:17:38.587Z,98934.22
2022-09-17T05:18:26.467Z,98926.72
2022-09-17T05:19:13.474Z,98932.94
2022-09-17T05:20:00.257Z,98932.75
2022-09-17T05:20:46.987Z,98927.53
2022-09-17T05:21:33.796Z,98930.03
2022-09-17T05:22:21.706Z,98935.00
2022-09-17T05:23:08.776Z,98919.16
2022-09-17T05:23:55.458Z,98922.91
2022-09-17T05:24:42.127Z,98915.03
2022-09-17T05:25:28.906Z,98910.66
2022-09-17T05:26:15.907Z,98915.91
2022-09-17T05:27:02.567Z,98905.69
2022-09-17T05:27:49.277Z,98910.66
2022-09-17T05:28:36.772Z,98917.75
2022-09-17T05:29:23.576Z,98917.28
2022-09-17T05:30:11.932Z,98916.63
2022-09-17T05:31:02.084Z,98913.72
2022-09-17T05:31:48.981Z,98915.34
2022-09-17T05:32:36.757Z,98915.16
2022-09-17T05:33:23.596Z,98914.53
2022-09-17T05:34:10.296Z,98914.47
2022-09-17T05:34:57.031Z,98920.09
2022-09-17T05:35:44.846Z,98923.06
2022-09-17T05:36:32.076Z,98916.81
2022-09-17T05:37:18.817Z,98927.81
2022-09-17T05:38:08.436Z,98931.12
2022-09-17T05:38:55.167Z,98924.66
2022-09-17T05:39:41.867Z,98931.12
2022-09-17T05:40:28.740Z,98933.16
2022-09-17T05:41:15.677Z,98933.78
2022-09-17T05:42:03.191Z,98935.66
2022-09-17T05:42:49.928Z,98944.44
2022-09-17T05:43:36.765Z,98942.72
2022-09-17T05:44:23.997Z,98945.19
2022-09-17T05:45:11.224Z,98945.72
2022-09-17T05:46:04.690Z,98946.34
2022-09-17T05:46:53.272Z,98952.00
2022-09-17T05:47:40.117Z,98954.47
2022-09-17T05:48:26.937Z,98960.06
2022-09-17T05:49:15.249Z,98962.13
2022-09-17T05:50:02.012Z,98962.94
2022-09-17T05:50:48.777Z,98966.66
2022-09-17T05:51:35.517Z,98967.03
2022-09-17T05:52:22.416Z,98966.59
2022-09-17T05:53:11.907Z,98967.03
2022-09-17T05:53:58.641Z,98961.41
2022-09-17T05:54:45.376Z,98961.91
2022-09-17T05:55:32.057Z,98968.97
2022-09-17T05:56:19.639Z,98965.66
2022-09-17T05:57:06.486Z,98969.12
2022-09-17T05:57:53.340Z,98967.81
2022-09-17T05:58:40.086Z,98974.06
2022-09-17T05:59:28.152Z,98972.37
2022-09-17T06:00:15.833Z,98967.16
2022-09-17T06:01:02.470Z,98974.03
2022-09-17T06:01:49.693Z,98985.47
2022-09-17T06:02:36.597Z,98986.09
2022-09-17T06:03:23.481Z,98989.56
2022-09-17T06:04:10.397Z,98995.59
2022-09-17T06:05:00.910Z,98997.69
2022-09-17T06:05:54.566Z,99004.78
2022-09-17T06:06:41.850Z,98996.81
2022-09-17T06:07:28.526Z,98995.84
2022-09-17T06:08:15.182Z,99003.72
2022-09-17T06:09:01.971Z,99001.00
2022-09-17T06:09:48.861Z,99001.41
2022-09-17T06:10:39.126Z,99002.00
2022-09-17T06:11:26.047Z,99006.34
2022-09-17T06:12:12.748Z,99007.53
2022-09-17T06:12:59.817Z,99015.06
2022-09-17T06:13:46.577Z,99019.50
2022-09-17T06:14:33.379Z,99021.81
2022-09-17T06:15:20.196Z,99019.28
2022-09-17T06:16:07.711Z,99026.50
2022-09-17T06:16:54.947Z,99014.56
2022-09-17T06:17:42.289Z,99024.50
2022-09-17T06:18:30.266Z,99012.16
2022-09-17T06:19:16.956Z,99009.84
2022-09-17T06:20:05.869Z,99011.00
2022-09-17T06:20:54.686Z,99005.38
2022-09-17T06:21:41.390Z,99007.50
2022-09-17T06:22:28.443Z,99007.41
2022-09-17T06:23:16.039Z,99009.38
2022-09-17T06:24:03.176Z,99003.28
2022-09-17T06:24:49.927Z,99003.28
2022-09-17T06:25:36.957Z,99000.34
2022-09-17T06:26:23.626Z,98999.47
2022-09-17T06:27:10.341Z,98996.75
2022-09-17T06:27:57.108Z,98994.78
2022-09-17T06:28:44.589Z,98998.78
2022-09-17T06:29:31.334Z,98999.00
2022-09-17T06:30:18.688Z,98989.34
2022-09-17T06:31:07.085Z,98989.97
2022-09-17T06:31:54.274Z,98989.75
2022-09-17T06:32:40.977Z,98981.00
2022-09-17T06:33:27.967Z,98977.22
2022-09-17T06:34:14.677Z,98976.19
2022-09-17T06:35:02.010Z,98982.00
2022-09-17T06:35:48.806Z,98977.22
2022-09-17T06:36:35.498Z,98981.44
2022-09-17T06:37:28.636Z,98974.88
2022-09-17T06:38:15.657Z,98976.47
2022-09-17T06:39:02.447Z,98982.50
2022-09-17T06:39:49.169Z,98984.97
2022-09-17T06:40:36.005Z,98987.94
2022-09-17T06:41:22.827Z,98982.50
2022-09-17T06:42:09.660Z,98984.97
2022-09-17T06:43:00.116Z,98986.47
2022-09-17T06:43:46.867Z,98987.25
2022-09-17T06:44:33.648Z,98983.62
2022-09-17T06:45:20.642Z,98988.37
2022-09-17T06:46:09.314Z,98992.50
2022-09-17T06:46:56.284Z,98990.38
2022-09-17T06:47:43.106Z,98996.19
2022-09-17T06:48:31.038Z,98989.47
2022-09-17T06:49:18.909Z,98996.13
2022-09-17T06:50:06.138Z,98997.31
2022-09-17T06:50:54.486Z,98994.09
2022-09-17T06:51:41.176Z,98989.47
2022-09-17T06:52:27.918Z,98989.00
2022-09-17T06:53:14.717Z,98998.12
2022-09-17T06:54:02.122Z,99001.66
2022-09-17T06:54:48.857Z,99006.19
2022-09-17T06:55:35.707Z,99001.75
2022-09-17T06:56:22.377Z,99000.16
2022-09-17T06:57:09.077Z,99006.19
2022-09-17T06:57:59.266Z,99001.59
2022-09-17T06:58:47.101Z,98996.25
2022-09-17T06:59:33.825Z,98995.25
2022-09-17T07:00:20.638Z,98996.09
2022-09-17T07:01:07.650Z,98994.22
2022-09-17T07:01:54.662Z,99003.19
2022-09-17T07:02:41.678Z,99004.63
2022-09-17T07:03:29.351Z,99009.87
2022-09-17T07:04:17.737Z,99008.63
2022-09-17T07:05:05.529Z,99009.72
2022-09-17T07:05:52.200Z,99007.88
2022-09-17T07:06:38.896Z,99003.41
2022-09-17T07:07:25.626Z,99002.37
2022-09-17T07:08:12.287Z,99005.97
2022-09-17T07:08:59.390Z,99009.66
2022-09-17T07:09:46.118Z,99007.53
2022-09-17T07:10:32.894Z,99011.72
2022-09-17T07:11:19.949Z,99015.16
2022-09-17T07:12:09.351Z,99015.53
2022-09-17T07:12:56.553Z,99007.72
2022-09-17T07:13:43.176Z,99014.19
2022-09-17T07:14:29.867Z,99014.06
2022-09-17T07:15:16.939Z,99011.75
2022-09-17T07:16:07.147Z,99016.06
2022-09-17T07:16:54.007Z,99018.91
2022-09-17T07:17:40.797Z,99024.72
2022-09-17T07:18:27.787Z,99019.63
2022-09-17T07:19:15.011Z,99018.56
2022-09-17T07:20:02.238Z,99012.06
2022-09-17T07:21:14.997Z,99016.13
2022-09-17T07:22:01.867Z,99012.81
2022-09-17T07:22:58.459Z,99011.19
2022-09-17T07:23:45.909Z,99008.00
2022-09-17T07:24:33.206Z,99004.84
2022-09-17T07:25:19.907Z,99003.41
2022-09-17T07:26:09.307Z,98999.66
2022-09-17T07:26:56.176Z,98996.69
2022-09-17T07:27:42.966Z,99001.69
2022-09-17T07:28:29.846Z,99008.06
2022-09-17T07:29:16.626Z,99009.34
2022-09-17T07:30:03.697Z,99011.38
2022-09-17T07:30:51.400Z,99010.78
2022-09-17T07:31:38.467Z,99023.53
2022-09-17T07:32:25.870Z,99021.62
2022-09-17T07:33:12.627Z,99022.00
2022-09-17T07:33:59.656Z,99025.47
2022-09-17T07:34:46.446Z,99024.19
2022-09-17T07:35:33.239Z,99027.50
2022-09-17T07:36:20.123Z,99026.81
2022-09-17T07:37:06.906Z,99016.53
2022-09-17T07:37:53.887Z,99031.41
2022-09-17T07:38:40.746Z,99024.31
2022-09-17T07:39:27.397Z,99025.37
2022-09-17T07:40:14.146Z,99021.38
2022-09-17T07:41:03.368Z,99026.09
2022-09-17T07:41:50.038Z,99020.34
2022-09-17T07:42:36.937Z,99030.50
2022-09-17T07:43:24.477Z,99032.31
2022-09-17T07:44:11.168Z,99034.69
2022-09-17T07:45:01.862Z,99036.69
2022-09-17T07:45:49.396Z,99038.19
2022-09-17T07:46:36.304Z,99040.78
2022-09-17T07:47:23.067Z,99038.88
2022-09-17T07:48:09.857Z,99047.91
2022-09-17T07:48:56.547Z,99044.31
2022-09-17T07:49:43.247Z,99041.00
2022-09-17T07:50:31.987Z,99054.00
2022-09-17T07:51:23.536Z,99059.91
2022-09-17T07:52:10.266Z,99061.94
2022-09-17T07:52:56.929Z,99064.53
2022-09-17T07:53:43.847Z,99063.13
2022-09-17T07:54:31.128Z,99059.81
2022-09-17T07:55:17.967Z,99057.63
2022-09-17T07:56:07.541Z,99061.22
2022-09-17T07:56:57.896Z,99066.47
2022-09-17T07:57:51.244Z,99071.91
2022-09-17T07:58:38.237Z,99072.84
2022-09-17T07:59:24.957Z,99072.00
2022-09-17T08:00:12.441Z,99084.03
2022-09-17T08:01:07.236Z,99083.78
2022-09-17T08:01:54.075Z,99080.53
2022-09-17T08:02:40.969Z,99067.19
2022-09-17T08:03:27.746Z,99069.47
2022-09-17T08:04:14.544Z,99066.16
2022-09-17T08:05:01.348Z,99063.31
2022-09-17T08:05:48.270Z,99064.75
2022-09-17T08:06:37.907Z,99060.72
2022-09-17T08:07:24.956Z,99054.78
2022-09-17T08:08:11.757Z,99053.97
2022-09-17T08:09:00.307Z,99047.56
2022-09-17T08:09:46.977Z,99045.44
2022-09-17T08:10:34.058Z,99049.56
2022-09-17T08:11:44.645Z,99037.50
2022-09-17T08:12:31.256Z,99044.56
2022-09-17T08:13:18.034Z,99035.47
2022-09-17T08:14:04.958Z,99032.19
2022-09-17T08:14:51.727Z,99022.88
2022-09-17T08:15:38.477Z,99022.06
2022-09-17T08:16:25.732Z,99020.63
2022-09-17T08:17:13.248Z,99012.03
2022-09-17T08:17:59.937Z,99004.00
2022-09-17T08:18:47.657Z,99016.84
2022-09-17T08:19:34.794Z,99017.78
2022-09-17T08:20:21.947Z,99010.78
2022-09-17T08:21:10.829Z,99014.34
2022-09-17T08:21:57.547Z,99021.19
2022-09-17T08:22:47.983Z,99021.09
2022-09-17T08:23:38.046Z,99023.34
2022-09-17T08:24:24.872Z,99027.94
2022-09-17T08:25:12.147Z,99034.25
2022-09-17T08:26:00.598Z,99034.97
2022-09-17T08:26:47.428Z,99039.50
2022-09-17T08:27:34.487Z,99038.56
2022-09-17T08:28:21.846Z,99043.19
2022-09-17T08:29:08.518Z,99045.19
2022-09-17T08:29:55.398Z,99044.97
2022-09-17T08:30:42.460Z,99049.94
2022-09-17T08:31:30.461Z,99049.81
2022-09-17T08:32:17.308Z,99052.69
2022-09-17T08:33:04.037Z,99053.03
2022-09-17T08:33:50.888Z,99051.97
2022-09-17T08:34:37.687Z,99059.75
2022-09-17T08:35:26.367Z,99055.75
2022-09-17T08:36:15.117Z,99056.22
2022-09-17T08:37:03.216Z,99054.47
2022-09-17T08:37:50.016Z,99055.06
2022-09-17T08:38:38.330Z,99057.06
2022-09-17T08:39:25.286Z,99056.03
2022-09-17T08:40:19.645Z,99057.94
2022-09-17T08:41:21.734Z,99064.66
2022-09-17T08:42:14.358Z,99073.53
2022-09-17T08:43:02.611Z,99069.63
2022-09-17T08:44:07.756Z,99071.28
2022-09-17T08:45:00.464Z,99068.09
2022-09-17T08:45:54.756Z,99071.53
2022-09-17T08:46:48.886Z,99059.94
2022-09-17T08:47:38.153Z,99061.00
2022-09-17T08:48:32.017Z,99064.31
2022-09-17T08:49:30.548Z,99060.75
2022-09-17T08:50:28.737Z,99059.44
2022-09-17T08:51:40.219Z,99058.50
2022-09-17T08:52:36.636Z,99066.91
2022-09-17T08:53:45.536Z,99055.44
2022-09-17T08:54:47.367Z,99051.81
2022-09-17T08:55:52.657Z,99048.25
2022-09-17T08:56:41.256Z,99056.91
2022-09-17T08:57:38.667Z,99058.19
2022-09-17T08:58:41.636Z,99051.66
2022-09-17T08:59:53.997Z,99050.94
2022-09-17T09:01:09.985Z,99056.63
2022-09-17T09:02:01.117Z,99052.94
2022-09-17T09:03:04.321Z,99050.44
2022-09-17T09:04:06.168Z,99054.56
2022-09-17T09:05:02.763Z,99056.84
2022-09-17T09:05:58.469Z,99055.28
2022-09-17T09:06:58.847Z,99062.66
2022-09-17T09:08:07.767Z,99059.19
2022-09-17T09:09:01.597Z,99063.69
2022-09-17T09:09:58.397Z,99061.44
2022-09-17T09:10:50.236Z,99061.25
2022-09-17T09:11:36.927Z,99062.34
2022-09-17T09:12:27.019Z,99066.31
2022-09-17T09:13:16.330Z,99064.19
2022-09-17T09:14:26.678Z,99066.44
2022-09-17T09:15:28.047Z,99065.59
2022-09-17T09:16:16.742Z,99064.66
2022-09-17T09:17:07.839Z,99058.28
2022-09-17T09:17:54.841Z,99059.00
2022-09-17T09:18:42.536Z,99059.00
2022-09-17T09:19:32.628Z,99062.66
2022-09-17T09:20:34.336Z,99060.28
2022-09-17T09:21:28.600Z,99062.63
2022-09-17T09:22:21.297Z,99069.75
2022-09-17T09:23:18.096Z,99073.13
2022-09-17T09:24:19.707Z,99073.06
2022-09-17T09:25:27.102Z,99073.72
2022-09-17T09:26:19.405Z,99075.41
2022-09-17T09:27:18.137Z,99082.97
2022-09-17T09:28:26.636Z,99076.72
2022-09-17T09:29:32.026Z,99077.16
2022-09-17T09:30:23.805Z,99074.44
2022-09-17T09:31:31.047Z,99080.47
2022-09-17T09:32:20.857Z,99085.22
2022-09-17T09:33:15.237Z,99079.31
2022-09-17T09:34:03.037Z,99070.56
2022-09-17T09:34:50.967Z,99076.59
2022-09-17T09:35:40.328Z,99074.62
2022-09-17T09:36:29.286Z,99077.09
2022-09-17T09:37:28.927Z,99072.13
2022-09-17T09:38:38.339Z,99080.75
2022-09-17T09:39:32.245Z,99073.06
2022-09-17T09:40:33.421Z,99080.38
2022-09-17T09:41:26.088Z,99076.63
2022-09-17T09:42:27.628Z,99073.91
2022-09-17T09:43:18.462Z,99072.47
2022-09-17T09:44:10.089Z,99072.38
2022-09-17T09:45:04.154Z,99081.63
2022-09-17T09:46:13.685Z,99067.19
2022-09-17T09:47:13.487Z,99057.59
2022-09-17T09:48:29.407Z,99061.00
2022-09-17T09:49:45.237Z,99058.88
2022-09-17T09:51:17.106Z,99047.34
2022-09-17T09:52:20.738Z,99045.22
2022-09-17T09:53:10.346Z,99043.97
2022-09-17T09:54:13.257Z,99042.88
2022-09-17T09:55:18.448Z,99046.31
2022-09-17T09:56:30.006Z,99060.06